createdAt,value
2023-01-31T00:00:55.561Z,22.58
2023-01-31T00:03:26.746Z,22.59
2023-01-31T00:05:57.642Z,22.59
2023-01-31T00:08:28.144Z,22.60
2023-01-31T00:11:02.080Z,22.62
2023-01-31T00:13:32.877Z,22.61
2023-01-31T00:16:03.675Z,22.61
2023-01-31T00:18:34.561Z,22.62
2023-01-31T00:21:11.239Z,22.62
2023-01-31T00:23:43.655Z,22.62
2023-01-31T00:26:19.052Z,22.62
2023-01-31T00:28:51.162Z,22.62
2023-01-31T00:31:24.060Z,22.64
2023-01-31T00:33:57.152Z,22.64
2023-01-31T00:36:31.725Z,22.64
2023-01-31T00:39:05.359Z,22.63
2023-01-31T00:41:40.427Z,22.61
2023-01-31T00:44:11.942Z,22.59
2023-01-31T00:46:43.158Z,22.60
2023-01-31T00:49:14.223Z,22.62
2023-01-31T00:51:45.196Z,22.63
2023-01-31T00:54:15.718Z,22.65
2023-01-31T00:56:48.921Z,22.67
2023-01-31T00:59:18.998Z,22.68
2023-01-31T01:01:50.015Z,22.71
2023-01-31T01:04:20.988Z,22.72
2023-01-31T01:06:53.367Z,22.73
2023-01-31T01:09:26.032Z,22.70
2023-01-31T01:11:58.750Z,22.65
2023-01-31T01:14:29.375Z,22.59
2023-01-31T01:17:00.576Z,22.55
2023-01-31T01:19:31.403Z,22.48
2023-01-31T01:22:01.965Z,22.42
2023-01-31T01:24:32.980Z,22.37
2023-01-31T01:27:05.442Z,22.31
2023-01-31T01:29:36.372Z,22.27
2023-01-31T01:32:08.246Z,22.25
2023-01-31T01:34:39.616Z,22.21
2023-01-31T01:37:20.352Z,22.17
2023-01-31T01:39:52.390Z,22.16
2023-01-31T01:42:28.461Z,22.15
2023-01-31T01:45:01.537Z,22.11
2023-01-31T01:47:47.549Z,22.07
2023-01-31T01:50:24.907Z,22.03
2023-01-31T01:53:00.930Z,22.02
2023-01-31T01:55:39.367Z,22.03
2023-01-31T01:58:21.564Z,22.03
2023-01-31T02:00:53.560Z,21.99
2023-01-31T02:03:25.198Z,21.96
2023-01-31T02:06:00.348Z,21.94
2023-01-31T02:08:36.096Z,21.91
2023-01-31T02:11:14.403Z,21.89
2023-01-31T02:13:50.005Z,21.88
2023-01-31T02:16:20.388Z,21.88
2023-01-31T02:18:53.164Z,21.89
2023-01-31T02:22:11.260Z,21.89
2023-01-31T02:25:41.282Z,21.85
2023-01-31T02:29:04.036Z,21.81
2023-01-31T02:32:06.240Z,21.80
2023-01-31T02:34:54.596Z,21.80
2023-01-31T02:38:27.006Z,21.76
2023-01-31T02:41:15.194Z,21.74
2023-01-31T02:44:13.412Z,21.74
2023-01-31T02:46:57.752Z,21.74
2023-01-31T02:49:40.098Z,21.77
2023-01-31T02:52:23.850Z,21.78
2023-01-31T02:55:29.397Z,21.78
2023-01-31T02:58:03.330Z,21.75
2023-01-31T03:00:38.587Z,21.74
2023-01-31T03:03:15.778Z,21.74
2023-01-31T03:05:46.655Z,21.75
2023-01-31T03:08:23.379Z,21.78
2023-01-31T03:11:07.114Z,21.79
2023-01-31T03:13:51.708Z,21.80
2023-01-31T03:16:48.175Z,21.82
2023-01-31T03:19:25.853Z,21.83
2023-01-31T03:22:04.881Z,21.84
2023-01-31T03:24:37.880Z,21.87
2023-01-31T03:27:09.716Z,21.89
2023-01-31T03:29:41.796Z,21.91
2023-01-31T03:32:21.030Z,21.90
2023-01-31T03:34:52.410Z,21.88
2023-01-31T03:37:33.469Z,21.81
2023-01-31T03:40:13.758Z,21.76
2023-01-31T03:42:52.654Z,21.68
2023-01-31T03:45:31.250Z,21.64
2023-01-31T03:48:08.088Z,21.58
2023-01-31T03:50:46.988Z,21.52
2023-01-31T03:53:24.644Z,21.48
2023-01-31T03:56:05.091Z,21.40
2023-01-31T03:58:48.085Z,21.31
2023-01-31T04:01:21.358Z,21.25
2023-01-31T04:03:59.079Z,21.20
2023-01-31T04:06:32.264Z,21.10
2023-01-31T04:09:03.260Z,21.03
2023-01-31T04:11:42.272Z,20.96
2023-01-31T04:14:13.730Z,20.90
2023-01-31T04:16:44.633Z,20.86
2023-01-31T04:19:15.207Z,20.84
2023-01-31T04:21:45.717Z,20.85
2023-01-31T04:24:16.662Z,20.86
2023-01-31T04:26:48.638Z,20.87
2023-01-31T04:29:19.490Z,20.89
2023-01-31T04:31:50.192Z,20.90
2023-01-31T04:34:20.646Z,20.88
2023-01-31T04:36:50.732Z,20.84
2023-01-31T04:39:20.669Z,20.80
2023-01-31T04:41:52.678Z,20.76
2023-01-31T04:44:23.399Z,20.70
2023-01-31T04:46:54.109Z,20.65
2023-01-31T04:49:24.611Z,20.61
2023-01-31T04:51:55.434Z,20.57
2023-01-31T04:54:26.131Z,20.54
2023-01-31T04:57:04.286Z,20.51
2023-01-31T04:59:34.920Z,20.48
2023-01-31T05:02:07.255Z,20.48
2023-01-31T05:04:37.173Z,20.48
2023-01-31T05:07:07.868Z,20.49
2023-01-31T05:09:38.101Z,20.50
2023-01-31T05:12:11.858Z,20.50
2023-01-31T05:14:42.391Z,20.50
2023-01-31T05:17:13.144Z,20.51
2023-01-31T05:19:44.784Z,20.49
2023-01-31T05:22:15.751Z,20.47
2023-01-31T05:24:46.337Z,20.46
2023-01-31T05:27:18.939Z,20.46
2023-01-31T05:29:49.855Z,20.46
2023-01-31T05:32:20.699Z,20.46
2023-01-31T05:34:51.538Z,20.48
2023-01-31T05:37:22.312Z,20.50
2023-01-31T05:39:52.040Z,20.52
2023-01-31T05:42:24.344Z,20.56
2023-01-31T05:44:54.931Z,20.58
2023-01-31T05:47:25.956Z,20.62
2023-01-31T05:49:56.131Z,20.63
2023-01-31T05:52:25.936Z,20.65
2023-01-31T05:54:57.393Z,20.66
2023-01-31T05:57:29.748Z,20.67
2023-01-31T06:00:01.372Z,20.66
2023-01-31T06:02:32.495Z,20.65
2023-01-31T06:05:03.603Z,20.65
2023-01-31T06:07:34.131Z,20.67
2023-01-31T06:10:05.536Z,20.68
2023-01-31T06:12:38.507Z,20.69
2023-01-31T06:15:10.427Z,20.70
2023-01-31T06:17:41.394Z,20.72
2023-01-31T06:20:13.846Z,20.74
2023-01-31T06:22:45.121Z,20.72
2023-01-31T06:25:16.024Z,20.71
2023-01-31T06:27:49.245Z,20.69
2023-01-31T06:30:20.125Z,20.67
2023-01-31T06:32:50.899Z,20.67
2023-01-31T06:35:21.866Z,20.66
2023-01-31T06:37:52.739Z,20.66
2023-01-31T06:40:23.724Z,20.66
2023-01-31T06:42:55.720Z,20.65
2023-01-31T06:45:26.679Z,20.67
2023-01-31T06:47:57.138Z,20.68
2023-01-31T06:50:27.818Z,20.68
2023-01-31T06:52:59.856Z,20.70
2023-01-31T06:55:30.458Z,20.72
2023-01-31T06:58:03.286Z,20.74
2023-01-31T07:00:41.289Z,20.74
2023-01-31T07:03:11.991Z,20.76
2023-01-31T07:05:42.500Z,20.78
2023-01-31T07:08:12.485Z,20.81
2023-01-31T07:10:42.675Z,20.81
2023-01-31T07:13:15.184Z,20.84
2023-01-31T07:15:46.168Z,20.86
2023-01-31T07:18:16.698Z,20.88
2023-01-31T07:20:47.142Z,20.91
2023-01-31T07:23:17.788Z,20.92
2023-01-31T07:25:48.560Z,20.93
2023-01-31T07:28:21.385Z,20.96
2023-01-31T07:30:52.516Z,21.00
2023-01-31T07:33:22.756Z,21.03
2023-01-31T07:35:53.376Z,21.06
2023-01-31T07:38:23.524Z,21.07
2023-01-31T07:40:53.569Z,21.10
2023-01-31T07:43:25.956Z,21.11
2023-01-31T07:45:57.172Z,21.09
2023-01-31T07:48:28.895Z,21.07
2023-01-31T07:51:04.109Z,21.02
2023-01-31T07:53:40.445Z,20.94
2023-01-31T07:56:14.184Z,20.87
2023-01-31T07:58:48.511Z,20.81
2023-01-31T08:01:38.490Z,20.76
2023-01-31T08:04:20.469Z,20.72
2023-01-31T08:06:55.982Z,20.68
2023-01-31T08:09:27.255Z,20.65
2023-01-31T08:11:58.017Z,20.63
2023-01-31T08:14:29.829Z,20.61
2023-01-31T08:17:00.874Z,20.61
2023-01-31T08:19:31.769Z,20.61
2023-01-31T08:22:02.457Z,20.62
2023-01-31T08:24:33.432Z,20.63
2023-01-31T08:27:03.848Z,20.64
2023-01-31T08:29:36.553Z,20.67
2023-01-31T08:32:06.879Z,20.68
2023-01-31T08:34:37.146Z,20.71
2023-01-31T08:37:07.888Z,20.76
2023-01-31T08:39:38.423Z,20.79
2023-01-31T08:42:09.137Z,20.83
2023-01-31T08:44:42.338Z,20.88
2023-01-31T08:47:14.905Z,20.91
2023-01-31T08:49:45.781Z,20.95
2023-01-31T08:52:16.292Z,21.01
2023-01-31T08:54:46.912Z,21.05
2023-01-31T08:57:17.579Z,21.10
2023-01-31T08:59:49.658Z,21.18
2023-01-31T09:02:20.677Z,21.26
2023-01-31T09:04:53.172Z,21.36
2023-01-31T09:07:23.617Z,21.47
2023-01-31T09:09:55.205Z,21.57
2023-01-31T09:12:25.164Z,21.67
2023-01-31T09:14:58.985Z,21.78
2023-01-31T09:17:29.241Z,21.87
2023-01-31T09:20:00.715Z,21.95
2023-01-31T09:22:34.531Z,22.02
2023-01-31T09:25:06.784Z,22.08
2023-01-31T09:27:39.650Z,22.13
2023-01-31T09:30:17.789Z,22.16
2023-01-31T09:32:48.012Z,22.17
2023-01-31T09:35:19.824Z,22.19
2023-01-31T09:37:50.703Z,22.18
2023-01-31T09:40:26.959Z,22.17
2023-01-31T09:42:59.499Z,22.15
2023-01-31T09:45:38.428Z,22.10
2023-01-31T09:48:13.502Z,22.06
2023-01-31T09:50:51.403Z,22.04
2023-01-31T09:53:25.789Z,22.01
2023-01-31T09:56:21.562Z,21.95
2023-01-31T09:59:02.035Z,21.91
2023-01-31T10:01:52.099Z,21.87
2023-01-31T10:04:51.847Z,21.84
2023-01-31T10:07:32.234Z,21.85
2023-01-31T10:10:14.301Z,21.85
2023-01-31T10:12:51.980Z,21.85
2023-01-31T10:15:35.166Z,21.84
2023-01-31T10:18:16.556Z,21.83
2023-01-31T10:20:52.697Z,21.84
2023-01-31T10:23:33.366Z,21.85
2023-01-31T10:26:09.642Z,21.85
2023-01-31T10:28:51.217Z,21.86
2023-01-31T10:31:33.735Z,21.88
2023-01-31T10:34:16.621Z,21.91
2023-01-31T10:36:56.496Z,21.95
2023-01-31T10:39:34.447Z,21.98
2023-01-31T10:42:22.451Z,22.03
2023-01-31T10:44:58.556Z,22.09
2023-01-31T10:47:36.479Z,22.16
2023-01-31T10:50:19.735Z,22.21
2023-01-31T10:53:17.195Z,22.28
2023-01-31T10:56:06.971Z,22.33
2023-01-31T10:58:40.259Z,22.37
2023-01-31T11:01:15.253Z,22.42
2023-01-31T11:03:54.876Z,22.48
2023-01-31T11:06:28.586Z,22.52
2023-01-31T11:09:03.867Z,22.55
2023-01-31T11:11:34.593Z,22.57
2023-01-31T11:14:07.835Z,22.59
2023-01-31T11:16:43.401Z,22.57
2023-01-31T11:19:26.573Z,22.53
2023-01-31T11:21:59.784Z,22.51
2023-01-31T11:24:35.489Z,22.49
2023-01-31T11:27:10.198Z,22.46
2023-01-31T11:29:44.234Z,22.45
2023-01-31T11:32:22.389Z,22.45
2023-01-31T11:35:01.881Z,22.45
2023-01-31T11:37:36.932Z,22.46
2023-01-31T11:40:24.613Z,22.48
2023-01-31T11:42:56.292Z,22.50
2023-01-31T11:45:31.271Z,22.54
2023-01-31T11:48:12.669Z,22.55
2023-01-31T11:50:47.647Z,22.57
2023-01-31T11:53:26.597Z,22.59
2023-01-31T11:56:16.222Z,22.61
2023-01-31T11:58:50.160Z,22.61
2023-01-31T12:01:23.796Z,22.62
2023-01-31T12:04:04.131Z,22.62
2023-01-31T12:06:38.999Z,22.63
2023-01-31T12:09:25.502Z,22.65
2023-01-31T12:11:58.766Z,22.63
2023-01-31T12:14:41.927Z,22.62
2023-01-31T12:17:18.136Z,22.61
2023-01-31T12:20:25.211Z,22.62
2023-01-31T12:23:14.890Z,22.62
2023-01-31T12:26:05.989Z,22.65
2023-01-31T12:29:04.628Z,22.68
2023-01-31T12:32:06.734Z,22.71
2023-01-31T12:35:13.288Z,22.75
2023-01-31T12:38:03.789Z,22.77
2023-01-31T12:40:44.966Z,22.80
2023-01-31T12:43:44.118Z,22.82
2023-01-31T12:46:28.058Z,22.84
2023-01-31T12:49:45.024Z,22.82
2023-01-31T12:52:27.098Z,22.79
2023-01-31T12:55:18.910Z,22.77
2023-01-31T12:58:05.963Z,22.77
2023-01-31T13:00:47.504Z,22.75
2023-01-31T13:03:56.438Z,22.75
2023-01-31T13:06:33.408Z,22.73
2023-01-31T13:09:13.518Z,22.74
2023-01-31T13:11:50.399Z,22.75
2023-01-31T13:14:25.769Z,22.78
2023-01-31T13:17:02.728Z,22.79
2023-01-31T13:19:41.726Z,22.81
2023-01-31T13:22:19.785Z,22.82
2023-01-31T13:24:59.980Z,22.82
2023-01-31T13:27:39.165Z,22.82
2023-01-31T13:30:24.066Z,22.80
2023-01-31T13:32:59.313Z,22.79
2023-01-31T13:35:40.566Z,22.80
2023-01-31T13:38:17.686Z,22.80
2023-01-31T13:40:53.500Z,22.80
2023-01-31T13:43:24.905Z,22.80
2023-01-31T13:46:03.367Z,22.80
2023-01-31T13:48:43.052Z,22.81
2023-01-31T13:51:19.749Z,22.82
2023-01-31T13:53:55.989Z,22.82
2023-01-31T13:56:31.588Z,22.83
2023-01-31T13:59:04.343Z,22.85
2023-01-31T14:01:45.212Z,22.87
2023-01-31T14:04:40.116Z,22.86
2023-01-31T14:07:26.151Z,22.86
2023-01-31T14:10:37.881Z,22.86
2023-01-31T14:13:40.208Z,22.84
2023-01-31T14:16:46.585Z,22.84
2023-01-31T14:20:27.554Z,22.80
2023-01-31T14:23:35.344Z,22.79
2023-01-31T14:26:05.949Z,22.78
2023-01-31T14:28:43.222Z,22.78
2023-01-31T14:31:17.159Z,22.81
2023-01-31T14:33:50.999Z,22.80
2023-01-31T14:37:03.634Z,22.80
2023-01-31T14:40:08.417Z,22.79
2023-01-31T14:43:15.197Z,22.76
2023-01-31T14:46:30.906Z,22.72
2023-01-31T14:49:46.628Z,22.70
2023-01-31T14:52:53.614Z,22.66
2023-01-31T14:55:50.915Z,22.64
2023-01-31T14:58:28.405Z,22.64
2023-01-31T15:01:03.733Z,22.62
2023-01-31T15:03:39.325Z,22.61
2023-01-31T15:06:16.095Z,22.61
2023-01-31T15:08:51.862Z,22.60
2023-01-31T15:11:44.690Z,22.60
2023-01-31T15:14:35.169Z,22.58
2023-01-31T15:17:32.126Z,22.55
2023-01-31T15:20:21.005Z,22.52
2023-01-31T15:22:54.862Z,22.51
2023-01-31T15:25:35.834Z,22.51
2023-01-31T15:28:08.258Z,22.50
2023-01-31T15:30:41.044Z,22.48
2023-01-31T15:33:22.837Z,22.47
2023-01-31T15:35:59.693Z,22.46
2023-01-31T15:38:37.193Z,22.45
2023-01-31T15:41:25.554Z,22.44
2023-01-31T15:43:58.265Z,22.43
2023-01-31T15:46:33.181Z,22.44
2023-01-31T15:49:04.249Z,22.44
2023-01-31T15:51:34.336Z,22.43
2023-01-31T15:54:08.703Z,22.44
2023-01-31T15:56:44.356Z,22.43
2023-01-31T15:59:17.794Z,22.42
2023-01-31T16:01:53.420Z,22.41
2023-01-31T16:04:25.785Z,22.38
2023-01-31T16:06:56.741Z,22.38
2023-01-31T16:09:31.645Z,22.39
2023-01-31T16:12:06.045Z,22.39
2023-01-31T16:14:37.862Z,22.38
2023-01-31T16:17:08.669Z,22.36
2023-01-31T16:19:39.222Z,22.36
2023-01-31T16:22:29.380Z,22.36
2023-01-31T16:25:02.421Z,22.34
2023-01-31T16:27:40.079Z,22.34
2023-01-31T16:30:19.006Z,22.32
2023-01-31T16:32:52.013Z,22.31
2023-01-31T16:35:29.287Z,22.30
2023-01-31T16:38:08.378Z,22.31
2023-01-31T16:40:49.526Z,22.30
2023-01-31T16:43:29.299Z,22.31
2023-01-31T16:46:03.332Z,22.30
2023-01-31T16:48:37.124Z,22.31
2023-01-31T16:51:43.720Z,22.31
2023-01-31T16:54:27.973Z,22.29
2023-01-31T16:57:26.218Z,22.29
2023-01-31T17:00:00.867Z,22.30
2023-01-31T17:02:35.437Z,22.32
2023-01-31T17:05:34.705Z,22.35
2023-01-31T17:08:07.105Z,22.35
2023-01-31T17:10:38.831Z,22.35
2023-01-31T17:13:19.066Z,22.34
2023-01-31T17:15:53.750Z,22.27
2023-01-31T17:18:24.132Z,22.20
2023-01-31T17:20:54.398Z,22.14
2023-01-31T17:23:24.982Z,22.08
2023-01-31T17:25:55.597Z,22.04
2023-01-31T17:28:25.974Z,21.96
2023-01-31T17:30:58.860Z,21.88
2023-01-31T17:33:29.257Z,21.81
2023-01-31T17:36:00.519Z,21.75
2023-01-31T17:38:30.901Z,21.66
2023-01-31T17:41:01.423Z,21.58
2023-01-31T17:43:32.165Z,21.50
2023-01-31T17:46:04.059Z,21.44
2023-01-31T17:48:34.521Z,21.39
2023-01-31T17:51:05.055Z,21.33
2023-01-31T17:53:47.681Z,21.31
2023-01-31T17:56:21.414Z,21.28
2023-01-31T17:58:52.945Z,21.24
2023-01-31T18:01:25.553Z,21.23
2023-01-31T18:03:57.071Z,21.22
2023-01-31T18:06:27.636Z,21.22
2023-01-31T18:08:57.683Z,21.21
2023-01-31T18:11:28.238Z,21.21
2023-01-31T18:13:59.530Z,21.20
2023-01-31T18:16:32.527Z,21.21
2023-01-31T18:19:06.837Z,21.20
2023-01-31T18:21:43.878Z,21.19
2023-01-31T18:24:17.462Z,21.17
2023-01-31T18:26:48.895Z,21.16
2023-01-31T18:29:23.851Z,21.14
2023-01-31T18:31:58.183Z,21.11
2023-01-31T18:34:28.400Z,21.08
2023-01-31T18:36:59.336Z,21.05
2023-01-31T18:39:29.920Z,21.02
2023-01-31T18:42:00.637Z,21.00
2023-01-31T18:44:31.695Z,20.98
2023-01-31T18:47:03.863Z,20.97
2023-01-31T18:49:33.851Z,20.94
2023-01-31T18:52:04.442Z,20.92
2023-01-31T18:54:34.488Z,20.88
2023-01-31T18:57:05.215Z,20.84
2023-01-31T18:59:37.158Z,20.78
2023-01-31T19:02:12.539Z,20.72
2023-01-31T19:04:43.022Z,20.63
2023-01-31T19:07:13.060Z,20.58
2023-01-31T19:09:43.201Z,20.53
2023-01-31T19:12:13.766Z,20.47
2023-01-31T19:14:46.794Z,20.41
2023-01-31T19:17:21.236Z,20.36
2023-01-31T19:19:52.870Z,20.33
2023-01-31T19:22:23.214Z,20.32
2023-01-31T19:24:53.895Z,20.31
2023-01-31T19:27:23.995Z,20.31
2023-01-31T19:29:54.923Z,20.30
2023-01-31T19:32:29.603Z,20.30
2023-01-31T19:35:00.382Z,20.29
2023-01-31T19:37:32.293Z,20.29
2023-01-31T19:40:02.859Z,20.29
2023-01-31T19:42:33.561Z,20.28
2023-01-31T19:45:04.765Z,20.28
2023-01-31T19:47:37.618Z,20.28
2023-01-31T19:50:09.307Z,20.27
2023-01-31T19:52:39.978Z,20.27
2023-01-31T19:55:11.299Z,20.26
2023-01-31T19:57:41.345Z,20.26
2023-01-31T20:00:21.337Z,20.24
2023-01-31T20:02:53.210Z,20.22
2023-01-31T20:05:23.899Z,20.21
2023-01-31T20:07:54.812Z,20.18
2023-01-31T20:10:24.778Z,20.17
2023-01-31T20:12:56.176Z,20.15
2023-01-31T20:15:26.660Z,20.15
2023-01-31T20:18:00.011Z,20.14
2023-01-31T20:20:30.601Z,20.12
2023-01-31T20:23:01.963Z,20.11
2023-01-31T20:25:32.613Z,20.07
2023-01-31T20:28:03.566Z,20.05
2023-01-31T20:30:33.694Z,20.04
2023-01-31T20:33:06.156Z,20.01
2023-01-31T20:35:36.359Z,19.98
2023-01-31T20:38:06.724Z,19.98
2023-01-31T20:40:38.027Z,19.98
2023-01-31T20:43:09.189Z,19.98
2023-01-31T20:45:39.946Z,19.97
2023-01-31T20:48:12.807Z,19.95
2023-01-31T20:50:43.222Z,19.91
2023-01-31T20:53:23.510Z,19.91
2023-01-31T20:56:03.084Z,19.88
2023-01-31T20:58:35.795Z,19.86
2023-01-31T21:01:08.785Z,19.84
2023-01-31T21:03:41.417Z,19.81
2023-01-31T21:06:11.823Z,19.78
2023-01-31T21:08:43.023Z,19.77
2023-01-31T21:11:16.607Z,19.75
2023-01-31T21:13:47.669Z,19.72
2023-01-31T21:16:18.925Z,19.70
2023-01-31T21:18:51.289Z,19.67
2023-01-31T21:21:25.847Z,19.64
2023-01-31T21:23:58.627Z,19.63
2023-01-31T21:26:29.660Z,19.60
2023-01-31T21:29:03.895Z,19.59
2023-01-31T21:31:34.985Z,19.57
2023-01-31T21:34:08.085Z,19.54
2023-01-31T21:36:38.768Z,19.52
2023-01-31T21:39:09.677Z,19.51
2023-01-31T21:41:56.972Z,19.50
2023-01-31T21:44:27.983Z,19.48
2023-01-31T21:46:58.387Z,19.49
2023-01-31T21:49:30.501Z,19.50
2023-01-31T21:52:00.836Z,19.51
2023-01-31T21:54:31.571Z,19.51
2023-01-31T21:57:02.455Z,19.53
2023-01-31T21:59:32.903Z,19.52
2023-01-31T22:02:03.869Z,19.50
2023-01-31T22:04:36.779Z,19.50
2023-01-31T22:07:06.906Z,19.47
2023-01-31T22:09:37.187Z,19.42
2023-01-31T22:12:08.568Z,19.36
2023-01-31T22:14:39.905Z,19.32
2023-01-31T22:17:10.254Z,19.30
2023-01-31T22:19:43.085Z,19.32
2023-01-31T22:22:13.961Z,19.33
2023-01-31T22:24:45.149Z,19.36
2023-01-31T22:27:15.869Z,19.38
2023-01-31T22:29:46.086Z,19.38
2023-01-31T22:32:16.472Z,19.41
2023-01-31T22:34:48.820Z,19.44
2023-01-31T22:37:19.424Z,19.45
2023-01-31T22:39:49.494Z,19.48
2023-01-31T22:42:19.471Z,19.52
2023-01-31T22:44:49.300Z,19.56
2023-01-31T22:47:19.533Z,19.59
2023-01-31T22:49:51.687Z,19.64
2023-01-31T22:52:21.705Z,19.68
2023-01-31T22:54:52.214Z,19.73
2023-01-31T22:57:22.988Z,19.77
2023-01-31T22:59:53.436Z,19.83
2023-01-31T23:02:23.900Z,19.86
2023-01-31T23:04:56.346Z,19.89
2023-01-31T23:07:26.714Z,19.91
2023-01-31T23:09:56.945Z,19.94
2023-01-31T23:12:27.583Z,19.96
2023-01-31T23:14:58.098Z,19.99
2023-01-31T23:17:40.500Z,20.01
2023-01-31T23:20:16.961Z,20.03
2023-01-31T23:22:48.822Z,20.05
2023-01-31T23:25:19.455Z,20.08
2023-01-31T23:27:50.841Z,20.10
2023-01-31T23:30:22.707Z,20.14
2023-01-31T23:32:53.497Z,20.16
2023-01-31T23:35:24.924Z,20.17
2023-01-31T23:37:55.164Z,20.18
2023-01-31T23:40:25.788Z,20.19
2023-01-31T23:42:56.355Z,20.19
2023-01-31T23:45:26.851Z,20.18
2023-01-31T23:47:57.691Z,20.21
2023-01-31T23:50:30.114Z,20.21
2023-01-31T23:53:01.212Z,20.23
2023-01-31T23:55:31.667Z,20.25
2023-01-31T23:58:01.957Z,20.27
